aviador You're here:

LFRS Decoded Metar

NANTES in FRANCE
Report Time2018-05-21 16:30:00
UTC Time2018-05-21 16:59:09
Flight Rules vfr VFR
Wind040° at 06 kt
W.Decomp.*RWY 03: 5.9 kt HW 1.2 kt RCW
W.Rank040° ranks 20
Current wind is above 040° avg. (5.3)
Visibility9999 m
Phenomena:Shower Rain
Clouds:N/A
Expected CloudBase > 6,400 ft AGL from Temp-Dew spread
CeilingNone
Temp25°C (ISA +10)
Dew Point09°C (36% RH)
AAT22.6°C
QNH1010 hPa
Density Alt1,526 ft
Elevation89 ft
Report Wrong Elevation
Raw Report
LFRS 211630Z AUTO 04006KT 320V100 CAVOK 25/09 Q1010 TEMPO
VRB15G25KT 4900 SHRA SCT050CB=

Extra information for LFRS:More info

Metar Taf Metar & Taf Last 4 Metars F.Rules Stats Wind Profile Meteogram Temp Stats Airport Information Weather charts Add Link Nearby VenuesMetar ALERT Operation Metar Decoded Social comments